ADDS METAR Data INFO
IDs: Format: Raw Decoded Include TAF

Data at: 0752 UTC 23 Apr 2018

KCPT 230735Z AUTO 27006KT 10SM CLR 10/08 A3005 RMK AO2
KCPT 230715Z AUTO 30005KT 10SM CLR 10/09 A3006 RMK AO2
KCPT 230655Z AUTO 33007KT 10SM CLR 10/09 A3006 RMK AO2
KCPT 230635Z AUTO 31006KT 10SM CLR 10/08 A3007 RMK AO2
KCPT 230615Z AUTO 29007KT 10SM CLR 10/08 A3008 RMK AO2
KCPT 230555Z AUTO 30006KT 10SM CLR 10/08 A3007 RMK AO2
KCPT 230535Z AUTO 29007KT 10SM CLR 11/08 A3007 RMK AO2
KCPT 230515Z AUTO 30005KT 10SM CLR 11/08 A3007 RMK AO2
KCPT 230455Z AUTO 31005KT 10SM CLR 11/08 A3007 RMK AO2
KCPT 230435Z AUTO 30005KT 10SM CLR 12/08 A3008 RMK AO2
KCPT 230415Z AUTO 29005KT 10SM CLR 12/08 A3008 RMK AO2
KCPT 230355Z AUTO 28004KT 10SM CLR 12/09 A3008 RMK AO2
KCPT 230335Z AUTO 00000KT 10SM CLR 13/08 A3008 RMK AO2
KCPT 230315Z AUTO 35006KT 10SM CLR 13/08 A3008 RMK AO2
KCPT 230255Z AUTO 35007KT 10SM CLR 13/08 A3008 RMK AO2
KCPT 230235Z AUTO 35009KT 10SM CLR 13/08 A3008 RMK AO2
KCPT 230215Z AUTO 35009KT 10SM CLR 13/08 A3007 RMK AO2
KCPT 230155Z AUTO 35006KT 10SM CLR 14/08 A3006 RMK AO2
KCPT 230135Z AUTO 33006KT 10SM CLR 14/07 A3006 RMK AO2
KCPT 230115Z AUTO 33006KT 10SM CLR 15/07 A3005 RMK AO2
KCPT 230055Z AUTO 33007KT 10SM CLR 17/07 A3005 RMK AO2
KCPT 230035Z AUTO 33008KT 10SM CLR 17/07 A3005 RMK AO2
KCPT 230015Z AUTO 33011G17KT 10SM CLR 18/06 A3005 RMK AO2
KCPT 222355Z AUTO 32013G18KT 10SM CLR 18/07 A3005 RMK AO2
KCPT 222335Z AUTO 32009G18KT 10SM CLR 19/06 A3005 RMK AO2
KCPT 222315Z AUTO 33011G18KT 10SM FEW050 18/06 A3005 RMK AO2
KCPT 222255Z AUTO 32011G16KT 10SM SCT050 19/07 A3005 RMK AO2
KCPT 222235Z AUTO 33016G22KT 10SM SCT050 19/06 A3006 RMK AO2
KCPT 222215Z AUTO 34012G19KT 10SM BKN049 18/07 A3006 RMK AO2
KCPT 222155Z AUTO 31009G20KT 10SM SCT048 19/07 A3006 RMK AO2
KCPT 222135Z AUTO 31011G20KT 10SM CLR 19/07 A3006 RMK AO2
KCPT 222115Z AUTO 32016G21KT 10SM CLR 19/07 A3006 RMK AO2
KCPT 222055Z AUTO 31016G22KT 10SM CLR 19/07 A3007 RMK AO2
KCPT 222035Z AUTO 33013G24KT 10SM CLR 18/07 A3007 RMK AO2
KCPT 221955Z AUTO 32017G24KT 10SM CLR 18/07 A3009 RMK AO2
KCPT 221935Z AUTO 33016G23KT 10SM FEW040 17/07 A3010 RMK AO2
KCPT 221915Z AUTO 32011G22KT 10SM SCT039 17/07 A3011 RMK AO2
KCPT 221855Z AUTO 32017G22KT 10SM SCT038 18/07 A3011 RMK AO2
KCPT 221835Z AUTO 31017G22KT 10SM BKN038 17/07 A3012 RMK AO2
KCPT 221815Z AUTO 31015G24KT 10SM BKN037 BKN042 16/07 A3012 RMK AO2
KCPT 221755Z AUTO 31017KT 10SM BKN036 BKN043 16/07 A3013 RMK AO2
KCPT 221735Z AUTO 30015G21KT 10SM BKN036 16/07 A3014 RMK AO2
KCPT 221715Z AUTO 33015G21KT 10SM SCT036 16/07 A3014 RMK AO2
KCPT 221655Z AUTO 32016KT 10SM SCT035 16/08 A3014 RMK AO2
KCPT 221635Z AUTO 31016KT 10SM BKN035 16/07 A3014 RMK AO2
KCPT 221615Z AUTO 33015G20KT 10SM SCT035 15/07 A3014 RMK AO2
KCPT 221555Z AUTO 33016KT 10SM FEW033 15/07 A3014 RMK AO2
KCPT 221535Z AUTO 34014G21KT 10SM FEW030 14/07 A3014 RMK AO2
KCPT 221455Z AUTO 34015KT 10SM FEW026 14/08 A3013 RMK AO2
KCPT 221435Z AUTO 33012G20KT 10SM SCT023 13/08 A3014 RMK AO2
KCPT 221415Z AUTO 34017KT 10SM SCT023 12/08 A3013 RMK AO2
KCPT 221355Z AUTO 33018KT 10SM SCT020 12/08 A3013 RMK AO2
KCPT 221335Z AUTO 34016KT 10SM BKN020 11/08 A3012 RMK AO2
KCPT 221315Z AUTO 33013KT 10SM SCT020 11/08 A3012 RMK AO2
KCPT 221255Z AUTO 35016G22KT 10SM SCT022 11/08 A3011 RMK AO2
KCPT 221235Z AUTO 36018G26KT 10SM OVC022 11/08 A3010 RMK AO2
KCPT 221215Z AUTO 34016G23KT 10SM OVC019 11/08 A3011 RMK AO2
KCPT 221155Z AUTO 35011G18KT 10SM OVC019 11/09 A3011 RMK AO2
KCPT 221135Z AUTO 34015KT 10SM OVC019 11/08 A3010 RMK AO2
KCPT 221115Z AUTO 34012G20KT 10SM OVC017 11/09 A3010 RMK AO2
KCPT 221055Z AUTO 35017G23KT 10SM OVC017 11/09 A3009 RMK AO2
KCPT 221035Z AUTO 35014G24KT 10SM OVC017 11/09 A3009 RMK AO2
KCPT 221015Z AUTO 34015KT 10SM OVC017 11/09 A3009 RMK AO2
KCPT 220955Z AUTO 35014KT 10SM OVC016 11/09 A3008 RMK AO2
KCPT 220935Z AUTO 34015G21KT 10SM OVC016 11/09 A3008 RMK AO2
KCPT 220915Z AUTO 34014G19KT 10SM OVC016 11/09 A3008 RMK AO2
KCPT 220855Z AUTO 34013KT 10SM OVC016 11/09 A3008 RMK AO2
KCPT 220835Z AUTO 34013G20KT 10SM OVC016 10/09 A3007 RMK AO2
KCPT 220815Z AUTO 35017G22KT 10SM OVC015 10/09 A3008 RMK AO2
KCPT 220755Z AUTO 34017G22KT 10SM BKN015 OVC019 10/09 A3007 RMK AO2
KCPT 220735Z AUTO 34016G22KT 10SM BKN016 10/09 A3007 RMK AO2
KCPT 220715Z AUTO 33012G20KT 10SM BKN014 BKN019 11/10 A3007 RMK AO2
KCPT 220655Z AUTO 34015G21KT 10SM BKN013 BKN019 11/10 A3007 RMK AO2
KCPT 220635Z AUTO 33011KT 10SM SCT013 SCT050 11/10 A3007 RMK AO2
KCPT 220615Z AUTO 33011KT 10SM CLR 11/10 A3007 RMK AO2
KCPT 220555Z AUTO 33010G15KT 10SM CLR 11/10 A3007 RMK AO2
KCPT 220535Z AUTO 35011KT 10SM FEW033 11/10 A3006 RMK AO2
KCPT 220515Z AUTO 34013G20KT 10SM BKN030 BKN035 12/10 A3007 RMK AO2
KCPT 220455Z AUTO 34013KT 10SM OVC029 13/11 A3007 RMK AO2
KCPT 220435Z AUTO 34012G17KT 10SM FEW011 FEW016 OVC027 13/12 A3008 RMK AO2
KCPT 220415Z AUTO 34014G21KT 10SM BKN011 BKN016 OVC024 13/12 A3008 RMK AO2
KCPT 220355Z AUTO 33014G20KT 10SM OVC011 13/12 A3007 RMK AO2
KCPT 220335Z AUTO 32012G21KT 10SM BKN009 OVC012 13/13 A3006 RMK AO2
KCPT 220315Z AUTO 10SM BKN007 OVC011 RMK AO2 PNO PWINO TSNO
KCPT 220255Z AUTO 32016G21KT 8SM OVC004 13/13 A3004 RMK AO2
KCPT 220235Z AUTO 33014G21KT 3SM BR 14/14 A3003 RMK AO2
KCPT 220215Z AUTO 33014G20KT 2 1/2SM BR OVC003 15/15 A3001 RMK AO2
KCPT 220155Z AUTO 34013G23KT 1 3/4SM BR 15/15 A2999 RMK AO2 P0001
KCPT 220135Z AUTO 33014G22KT 9SM FEW003 FEW009 16/16 A2998 RMK AO2
KCPT 220115Z AUTO 33010KT 10SM CLR 15/15 A2996 RMK AO2
KCPT 220055Z AUTO 36009KT 10SM SCT110 16/15 A2994 RMK AO2
KCPT 220035Z AUTO 03009KT 10SM 17/16 A2993 RMK AO2 LTG DSNT E AND SE
KCPT 220015Z AUTO 03010G21KT A2990 RMK AO2 LTG DSNT NE-S PWINO
KCPT 212355Z AUTO 03017KT 4SM TSRA FEW002 SCT031 BKN038 17/17 A2990 RMK AO2 LTG DSNT ALQDS P0008
KCPT 212335Z AUTO 36018G31KT 4SM VCTS RA FEW002 SCT017 BKN029 18/18 A2990 RMK AO2 LTG DSNT ALQDS
KCPT 212315Z AUTO 27016KT 10SM BKN018 BKN110 20/18 A2990 RMK AO2 LTG DSNT SW-N
KCPT 212255Z AUTO 17014KT 10SM 20/18 A2985 RMK AO2
KCPT 212235Z AUTO 10SM RMK AO2 LTG DSNT NW
KCPT 212215Z AUTO 16015KT 10SM BKN016 20/18 A2985 RMK AO2
KCPT 212155Z AUTO 17014KT 9SM OVC013 20/18 A2988 RMK AO2 LTG DSNT NW
KCPT 212135Z AUTO 17011G16KT 9SM OVC014 20/18 A2989 RMK AO2 LTG DSNT NW
KCPT 212115Z AUTO 17011KT 7SM SCT008 BKN013 BKN018 18/18 A2989 RMK AO2
KCPT 212055Z AUTO 18011KT 7SM SCT007 BKN013 18/18 A2991 RMK AO2
KCPT 212035Z AUTO 18013G18KT 6SM BR BKN007 18/18 A2991 RMK AO2
KCPT 212015Z AUTO 16012G17KT 6SM BR BKN007 17/17 A2992 RMK AO2
KCPT 211955Z AUTO 16013KT 6SM BR BKN006 17/17 A2993 RMK AO2